Time;durP1;ratioP1;P1;durP2;ratioP2;P2;SDS_P1;SDS_P2;PMS_P1;PMS_P2;Temp;Humidity;BMP_temperature;BMP_pressure;BME280_temperature;BME280_humidity;BME280_pressure;Samples;Min_cycle;Max_cycle;Signal;HPM_P1;HPM_P2
2022/11/19 00:00:45;;;;;;;4.03;3.80;;;;;;;;;;5025819;28;20215;-73
2022/11/19 00:03:13;;;;;;;3.17;2.97;;;;;;;;;;4985585;28;20598;-71
2022/11/19 00:05:40;;;;;;;3.03;2.90;;;;;;;;;;5027113;28;20211;-72
2022/11/19 00:08:08;;;;;;;3.50;3.30;;;;;;;;;;5028625;28;20214;-71
2022/11/19 00:10:36;;;;;;;3.70;3.50;;;;;;;;;;5029367;28;20199;-72
2022/11/19 00:13:04;;;;;;;4.13;3.83;;;;;;;;;;5025913;28;20407;-71
2022/11/19 00:15:33;;;;;;;4.60;4.30;;;;;;;;;;5030893;28;20729;-72
2022/11/19 00:18:01;;;;;;;4.70;4.30;;;;;;;;;;4980397;28;21014;-72
2022/11/19 00:20:29;;;;;;;5.13;4.67;;;;;;;;;;5028069;28;20216;-72
2022/11/19 00:22:57;;;;;;;5.47;5.07;;;;;;;;;;5024234;28;20246;-71
2022/11/19 00:25:26;;;;;;;5.67;5.10;;;;;;;;;;5032487;28;20565;-71
2022/11/19 00:27:53;;;;;;;5.53;5.13;;;;;;;;;;5025774;28;20208;-71
2022/11/19 00:30:22;;;;;;;6.17;5.70;;;;;;;;;;5027753;28;20196;-71
2022/11/19 00:33:10;;;;;;;5.40;5.00;;;;;;;;;;5027874;28;20711;-71
2022/11/19 00:35:37;;;;;;;6.50;5.90;;;;;;;;;;4987626;28;20461;-72
2022/11/19 00:38:04;;;;;;;5.10;4.77;;;;;;;;;;5027586;28;20401;-72
2022/11/19 00:40:32;;;;;;;5.70;5.20;;;;;;;;;;5029352;28;20599;-72
2022/11/19 00:45:47;;;;;;;5.43;5.03;;;;;;;;;;5027239;28;20211;-73
2022/11/19 00:48:15;;;;;;;5.23;4.77;;;;;;;;;;5026251;28;20199;-71
2022/11/19 00:50:42;;;;;;;5.50;5.10;;;;;;;;;;4987235;28;20665;-70
2022/11/19 00:53:10;;;;;;;6.33;5.83;;;;;;;;;;4975815;28;20874;-71
2022/11/19 00:55:37;;;;;;;5.50;5.00;;;;;;;;;;5010486;28;20208;-70
2022/11/19 00:58:05;;;;;;;6.10;5.60;;;;;;;;;;5019056;28;20214;-72
2022/11/19 01:00:32;;;;;;;6.10;5.50;;;;;;;;;;5018030;28;20207;-73
2022/11/19 01:03:01;;;;;;;6.47;5.90;;;;;;;;;;5012290;28;20236;-73
2022/11/19 01:05:28;;;;;;;5.90;5.40;;;;;;;;;;5035333;28;20204;-71
2022/11/19 01:07:56;;;;;;;6.43;5.83;;;;;;;;;;4991151;28;20475;-71
2022/11/19 01:10:24;;;;;;;6.53;5.93;;;;;;;;;;5021343;28;20215;-70
2022/11/19 01:15:36;;;;;;;6.30;5.70;;;;;;;;;;5011278;28;20465;-71
2022/11/19 01:18:05;;;;;;;6.53;6.03;;;;;;;;;;5007952;28;20651;-71
2022/11/19 01:20:33;;;;;;;6.30;5.80;;;;;;;;;;5023192;28;20424;-70
2022/11/19 01:23:00;;;;;;;6.27;5.77;;;;;;;;;;5021632;28;20558;-71
2022/11/19 01:25:28;;;;;;;6.67;5.87;;;;;;;;;;4981339;28;20220;-70
2022/11/19 01:27:57;;;;;;;5.97;5.50;;;;;;;;;;5030502;28;20778;-70
2022/11/19 01:30:24;;;;;;;7.13;6.47;;;;;;;;;;5010508;28;20214;-69
2022/11/19 01:32:52;;;;;;;7.27;6.60;;;;;;;;;;5007624;28;20257;-70
2022/11/19 01:35:20;;;;;;;6.43;5.83;;;;;;;;;;5027373;28;20206;-72
2022/11/19 01:37:48;;;;;;;7.53;6.93;;;;;;;;;;5025913;28;20265;-72
2022/11/19 01:40:15;;;;;;;7.07;6.37;;;;;;;;;;4987237;28;20212;-71
2022/11/19 01:42:52;;;;;;;6.33;5.83;;;;;;;;;;5026375;28;20954;-69
2022/11/19 01:45:29;;;;;;;6.77;6.17;;;;;;;;;;5018928;28;20222;-70
2022/11/19 01:47:58;;;;;;;6.67;6.17;;;;;;;;;;5009983;28;20224;-71
2022/11/19 01:50:28;;;;;;;6.63;6.13;;;;;;;;;;5030023;28;20207;-71
2022/11/19 01:52:56;;;;;;;6.93;6.33;;;;;;;;;;5022813;28;20232;-70
2022/11/19 01:55:24;;;;;;;7.20;6.60;;;;;;;;;;5001063;28;20212;-67
2022/11/19 01:57:53;;;;;;;7.87;7.17;;;;;;;;;;5017084;28;20207;-70
2022/11/19 02:00:21;;;;;;;7.27;6.63;;;;;;;;;;5026781;28;21977;-70
2022/11/19 02:02:49;;;;;;;7.13;6.63;;;;;;;;;;5011481;28;20234;-69
2022/11/19 02:05:17;;;;;;;8.47;7.77;;;;;;;;;;5005201;28;20211;-70
2022/11/19 02:07:49;;;;;;;8.27;7.47;;;;;;;;;;5026760;28;20373;-70
2022/11/19 02:10:16;;;;;;;8.87;7.97;;;;;;;;;;5026102;28;20691;-71
2022/11/19 02:12:48;;;;;;;8.93;8.03;;;;;;;;;;4987065;28;20351;-70
2022/11/19 02:15:18;;;;;;;9.73;8.83;;;;;;;;;;5020940;28;20618;-72
2022/11/19 02:17:51;;;;;;;9.87;8.60;;;;;;;;;;5008377;28;20842;-70
2022/11/19 02:20:27;;;;;;;10.00;9.10;;;;;;;;;;5009728;28;20213;-71
2022/11/19 02:23:18;;;;;;;9.90;8.93;;;;;;;;;;5027485;28;20531;-71
2022/11/19 02:25:59;;;;;;;10.50;9.50;;;;;;;;;;4989328;28;20453;-71
2022/11/19 02:28:30;;;;;;;10.40;9.30;;;;;;;;;;4983818;28;20479;-71
2022/11/19 02:31:03;;;;;;;10.20;9.20;;;;;;;;;;5032199;28;20253;-70
2022/11/19 02:33:35;;;;;;;10.57;9.47;;;;;;;;;;5008570;28;20258;-71
2022/11/19 02:36:08;;;;;;;10.93;9.83;;;;;;;;;;5016483;28;20694;-72
2022/11/19 02:38:39;;;;;;;10.13;9.13;;;;;;;;;;5022365;28;20417;-71
2022/11/19 02:44:57;;;;;;;10.87;9.77;;;;;;;;;;5030669;28;20239;-72
2022/11/19 02:46:50;;;;;;;10.87;9.77;;;;;;;;;;5027314;28;20216;-72
2022/11/19 02:49:18;;;;;;;12.50;11.20;;;;;;;;;;5010072;28;20422;-70
2022/11/19 02:51:47;;;;;;;10.50;9.50;;;;;;;;;;5004704;28;20296;-69
2022/11/19 02:54:16;;;;;;;11.87;10.77;;;;;;;;;;5026903;28;20632;-71
2022/11/19 02:56:46;;;;;;;11.10;9.93;;;;;;;;;;4986621;28;20436;-70
2022/11/19 03:04:48;;;;;;;12.97;11.67;;;;;;;;;;5017808;28;20447;-69
2022/11/19 03:07:18;;;;;;;12.80;11.50;;;;;;;;;;5030255;28;20204;-72
2022/11/19 03:09:48;;;;;;;13.80;11.57;;;;;;;;;;5002015;28;20208;-70
2022/11/19 03:12:20;;;;;;;13.10;11.80;;;;;;;;;;5030439;28;20230;-73
2022/11/19 03:17:46;;;;;;;15.13;13.53;;;;;;;;;;4986083;28;20603;-72
2022/11/19 03:20:18;;;;;;;14.70;13.27;;;;;;;;;;5028392;28;20195;-72
2022/11/19 03:22:49;;;;;;;14.03;12.63;;;;;;;;;;5019680;28;20231;-71
2022/11/19 03:25:20;;;;;;;15.50;13.87;;;;;;;;;;5032282;28;20698;-72
2022/11/19 03:27:48;;;;;;;18.23;15.13;;;;;;;;;;5011135;28;20744;-71
2022/11/19 03:30:17;;;;;;;16.47;14.47;;;;;;;;;;5034373;28;20199;-72
2022/11/19 03:32:47;;;;;;;18.10;14.83;;;;;;;;;;4988947;28;20782;-72
2022/11/19 03:35:17;;;;;;;17.13;15.40;;;;;;;;;;5030174;28;20208;-73
2022/11/19 03:37:45;;;;;;;15.33;13.73;;;;;;;;;;5035167;28;20215;-71
2022/11/19 03:40:15;;;;;;;17.07;15.13;;;;;;;;;;5031024;28;20215;-70
2022/11/19 03:42:45;;;;;;;16.87;15.17;;;;;;;;;;5014876;28;20223;-70
2022/11/19 03:45:14;;;;;;;19.17;17.13;;;;;;;;;;5029368;28;20683;-72
2022/11/19 03:47:43;;;;;;;15.90;14.30;;;;;;;;;;4987065;28;20223;-73
2022/11/19 03:50:17;;;;;;;15.77;14.20;;;;;;;;;;5027854;28;20211;-72
2022/11/19 03:52:45;;;;;;;16.33;14.63;;;;;;;;;;5031622;28;20323;-73
2022/11/19 03:55:12;;;;;;;16.63;14.93;;;;;;;;;;5031386;28;20207;-72
2022/11/19 03:57:40;;;;;;;17.17;14.97;;;;;;;;;;5004509;28;20235;-70
2022/11/19 04:00:08;;;;;;;18.00;14.80;;;;;;;;;;5031875;28;20207;-72
2022/11/19 04:02:36;;;;;;;17.27;15.40;;;;;;;;;;5013182;28;20334;-71
2022/11/19 04:05:04;;;;;;;16.33;14.27;;;;;;;;;;5005597;28;20726;-72
2022/11/19 04:07:33;;;;;;;15.63;13.70;;;;;;;;;;5027615;28;20698;-71
2022/11/19 04:10:01;;;;;;;16.80;14.23;;;;;;;;;;5027986;28;20395;-71
2022/11/19 04:12:28;;;;;;;15.37;13.73;;;;;;;;;;5016054;28;20235;-73
2022/11/19 04:14:56;;;;;;;17.10;14.63;;;;;;;;;;5026269;28;20223;-71
2022/11/19 04:17:23;;;;;;;17.90;14.97;;;;;;;;;;5035176;28;20207;-72
2022/11/19 04:19:50;;;;;;;17.77;15.87;;;;;;;;;;4985265;28;20538;-71
2022/11/19 04:22:18;;;;;;;17.27;15.53;;;;;;;;;;5031702;28;20703;-72
2022/11/19 04:24:47;;;;;;;15.97;14.27;;;;;;;;;;5031901;28;20430;-71
2022/11/19 04:27:14;;;;;;;16.77;14.83;;;;;;;;;;5032782;28;20207;-72
2022/11/19 04:29:42;;;;;;;17.53;14.67;;;;;;;;;;5010446;28;20216;-71
2022/11/19 04:32:09;;;;;;;14.53;13.03;;;;;;;;;;5029478;28;20365;-73
2022/11/19 04:34:36;;;;;;;17.23;15.40;;;;;;;;;;4986797;28;20230;-70
2022/11/19 04:37:04;;;;;;;18.47;16.10;;;;;;;;;;5024033;28;20808;-70
2022/11/19 04:39:31;;;;;;;17.57;15.67;;;;;;;;;;5031169;28;20459;-71
2022/11/19 04:42:00;;;;;;;18.77;15.33;;;;;;;;;;5028948;28;20477;-71
2022/11/19 04:44:28;;;;;;;18.10;14.83;;;;;;;;;;5016088;28;20899;-71
2022/11/19 04:46:55;;;;;;;17.57;15.43;;;;;;;;;;5025639;28;20203;-71
2022/11/19 04:49:23;;;;;;;17.10;15.30;;;;;;;;;;5032897;28;20226;-69
2022/11/19 04:51:50;;;;;;;19.43;16.33;;;;;;;;;;4983056;28;20481;-69
2022/11/19 04:54:18;;;;;;;18.43;16.30;;;;;;;;;;5031824;28;20219;-70
2022/11/19 04:56:45;;;;;;;17.80;15.93;;;;;;;;;;5010628;28;20691;-70
2022/11/19 04:59:14;;;;;;;21.23;18.40;;;;;;;;;;5033676;28;20508;-71
2022/11/19 05:01:41;;;;;;;18.77;16.57;;;;;;;;;;5013128;28;20214;-70
2022/11/19 05:04:09;;;;;;;18.70;15.53;;;;;;;;;;5032816;28;20203;-73
2022/11/19 05:06:36;;;;;;;19.10;17.03;;;;;;;;;;4984388;28;20226;-72
2022/11/19 05:09:04;;;;;;;18.43;16.10;;;;;;;;;;4957644;28;20215;-71
2022/11/19 05:11:31;;;;;;;22.43;16.63;;;;;;;;;;5026868;28;20388;-70
2022/11/19 05:13:59;;;;;;;18.67;15.83;;;;;;;;;;5023349;28;20899;-72
2022/11/19 05:16:27;;;;;;;16.87;15.20;;;;;;;;;;5012878;28;20467;-72
2022/11/19 05:18:55;;;;;;;20.20;17.23;;;;;;;;;;5017766;28;20204;-71
2022/11/19 05:21:23;;;;;;;21.33;17.23;;;;;;;;;;5031757;28;20742;-71
2022/11/19 05:23:50;;;;;;;20.77;17.83;;;;;;;;;;4957343;28;20239;-70
2022/11/19 05:26:18;;;;;;;19.50;16.63;;;;;;;;;;5007652;28;20790;-70
2022/11/19 05:28:45;;;;;;;19.27;16.40;;;;;;;;;;5012273;28;20609;-70
2022/11/19 05:31:13;;;;;;;17.97;15.83;;;;;;;;;;5008557;28;20201;-71
2022/11/19 05:33:42;;;;;;;20.93;17.40;;;;;;;;;;5028772;28;20575;-69
2022/11/19 05:36:09;;;;;;;20.83;17.23;;;;;;;;;;5034483;28;20639;-72
2022/11/19 05:38:37;;;;;;;19.83;16.10;;;;;;;;;;5013665;28;20204;-66
2022/11/19 05:41:05;;;;;;;19.57;17.37;;;;;;;;;;4983688;28;21131;-73
2022/11/19 05:43:32;;;;;;;20.43;18.27;;;;;;;;;;5023444;28;20254;-71
2022/11/19 05:46:00;;;;;;;19.33;17.23;;;;;;;;;;5011047;28;20212;-71
2022/11/19 05:48:27;;;;;;;19.30;17.23;;;;;;;;;;5012416;28;20215;-71
2022/11/19 05:50:56;;;;;;;19.77;16.97;;;;;;;;;;5028028;28;20439;-72
2022/11/19 05:53:23;;;;;;;21.30;17.93;;;;;;;;;;5020237;28;20228;-74
2022/11/19 05:55:51;;;;;;;19.50;17.40;;;;;;;;;;4964788;28;20227;-72
2022/11/19 05:58:18;;;;;;;19.37;17.27;;;;;;;;;;5017237;28;20204;-72
2022/11/19 06:00:46;;;;;;;18.77;16.23;;;;;;;;;;5008261;28;20216;-70
2022/11/19 06:03:13;;;;;;;21.55;19.17;;;;;;;;;;5007097;28;20987;-70
2022/11/19 06:05:41;;;;;;;20.93;17.70;;;;;;;;;;5033516;28;20207;-71
2022/11/19 06:08:09;;;;;;;18.37;16.23;;;;;;;;;;5032573;28;20207;-72
2022/11/19 06:10:37;;;;;;;19.47;16.83;;;;;;;;;;4985931;28;20787;-70
2022/11/19 06:13:04;;;;;;;22.70;20.50;;;;;;;;;;5015947;28;20451;-70
2022/11/19 06:15:32;;;;;;;20.33;17.73;;;;;;;;;;5010188;28;20231;-72
2022/11/19 06:17:59;;;;;;;19.23;16.97;;;;;;;;;;4996901;28;21288;-70
2022/11/19 06:20:27;;;;;;;18.47;16.57;;;;;;;;;;5032593;28;20892;-70
2022/11/19 06:22:54;;;;;;;17.47;15.50;;;;;;;;;;5013938;28;20235;-68
2022/11/19 06:25:23;;;;;;;21.50;17.50;;;;;;;;;;5034217;28;20940;-69
2022/11/19 06:27:51;;;;;;;17.83;15.97;;;;;;;;;;4970101;28;20454;-74
2022/11/19 06:30:18;;;;;;;19.23;16.70;;;;;;;;;;5020447;28;20215;-72
2022/11/19 06:32:46;;;;;;;18.50;16.57;;;;;;;;;;5006888;28;20232;-74
2022/11/19 06:35:13;;;;;;;19.53;17.33;;;;;;;;;;5036000;28;20515;-72
2022/11/19 06:37:41;;;;;;;18.90;16.70;;;;;;;;;;5033948;28;20666;-71
2022/11/19 06:40:09;;;;;;;19.73;16.67;;;;;;;;;;5038945;28;20200;-71
2022/11/19 06:42:38;;;;;;;23.20;20.80;;;;;;;;;;4980217;28;21261;-70
2022/11/19 06:45:06;;;;;;;20.90;18.70;;;;;;;;;;5004234;28;20208;-72
2022/11/19 06:47:34;;;;;;;19.17;17.10;;;;;;;;;;5010610;28;20465;-69
2022/11/19 06:50:01;;;;;;;21.80;17.97;;;;;;;;;;5011464;28;20445;-70
2022/11/19 06:52:29;;;;;;;20.83;17.60;;;;;;;;;;5030579;28;20231;-69
2022/11/19 06:54:56;;;;;;;21.33;17.13;;;;;;;;;;5032729;28;20231;-70
2022/11/19 06:57:23;;;;;;;21.20;17.43;;;;;;;;;;4989213;28;20788;-69
2022/11/19 06:59:52;;;;;;;20.03;17.70;;;;;;;;;;5003132;28;20221;-67
2022/11/19 07:02:20;;;;;;;19.70;16.90;;;;;;;;;;5018447;28;20227;-67
2022/11/19 07:04:48;;;;;;;19.83;16.70;;;;;;;;;;5010611;28;20215;-70
2022/11/19 07:07:15;;;;;;;19.30;17.20;;;;;;;;;;5034141;28;20207;-73
2022/11/19 07:09:43;;;;;;;18.97;16.93;;;;;;;;;;5038169;28;20473;-71
2022/11/19 07:12:14;;;;;;;21.73;18.50;;;;;;;;;;5030945;28;20887;-71
2022/11/19 07:14:42;;;;;;;20.07;17.20;;;;;;;;;;4946650;28;20274;-71
2022/11/19 07:17:10;;;;;;;23.10;18.03;;;;;;;;;;5008826;28;20753;-70
2022/11/19 07:19:38;;;;;;;19.93;16.87;;;;;;;;;;5040707;28;20803;-67
2022/11/19 07:22:06;;;;;;;24.57;19.27;;;;;;;;;;4993034;28;20243;-69
2022/11/19 07:24:33;;;;;;;20.90;17.57;;;;;;;;;;5036333;28;20204;-71
2022/11/19 07:47:54;;;;;;;18.67;16.20;;;;;;;;;;4979134;28;20530;-70
2022/11/19 07:50:21;;;;;;;21.60;17.83;;;;;;;;;;5028131;28;20484;-69
2022/11/19 07:52:49;;;;;;;20.83;17.50;;;;;;;;;;4982818;28;21037;-69
2022/11/19 07:55:16;;;;;;;20.07;16.73;;;;;;;;;;5009175;28;20679;-71
2022/11/19 07:57:44;;;;;;;21.03;18.73;;;;;;;;;;5033214;28;20700;-69
2022/11/19 08:00:12;;;;;;;21.03;18.67;;;;;;;;;;5038747;28;20214;-69
2022/11/19 08:02:39;;;;;;;17.57;15.67;;;;;;;;;;4983967;28;20250;-68
2022/11/19 08:05:09;;;;;;;19.77;16.93;;;;;;;;;;5029202;28;20305;-70
2022/11/19 08:07:36;;;;;;;19.50;17.40;;;;;;;;;;5008337;28;20214;-70
2022/11/19 08:10:05;;;;;;;21.07;17.73;;;;;;;;;;5006367;28;20409;-71
2022/11/19 08:12:33;;;;;;;18.03;15.63;;;;;;;;;;5035251;28;20220;-71
2022/11/19 08:15:00;;;;;;;18.40;16.50;;;;;;;;;;5033932;28;20437;-70
2022/11/19 08:20:14;;;;;;;18.77;16.77;;;;;;;;;;5031083;28;20226;-69
2022/11/19 08:22:43;;;;;;;18.47;16.50;;;;;;;;;;5015958;28;20235;-70
2022/11/19 08:25:10;;;;;;;20.77;17.40;;;;;;;;;;5005501;28;20853;-69
2022/11/19 08:27:37;;;;;;;16.87;15.17;;;;;;;;;;5034834;28;20251;-71
2022/11/19 08:30:05;;;;;;;17.90;15.07;;;;;;;;;;5039682;28;20432;-71
2022/11/19 08:32:35;;;;;;;19.70;16.37;;;;;;;;;;4979257;28;20223;-68
2022/11/19 08:35:03;;;;;;;18.03;15.67;;;;;;;;;;5030681;28;20768;-70
2022/11/19 08:37:30;;;;;;;16.33;14.50;;;;;;;;;;5039751;28;20645;-71
2022/11/19 08:39:59;;;;;;;17.00;15.10;;;;;;;;;;4983787;28;20592;-70
2022/11/19 08:45:12;;;;;;;16.87;15.07;;;;;;;;;;5035104;28;20207;-70
2022/11/19 08:47:46;;;;;;;17.23;15.00;;;;;;;;;;4969495;28;20470;-71
2022/11/19 08:50:14;;;;;;;18.47;15.53;;;;;;;;;;5022375;28;20291;-68
2022/11/19 08:52:42;;;;;;;19.57;16.27;;;;;;;;;;5005400;28;20227;-69
2022/11/19 08:55:11;;;;;;;20.70;15.60;;;;;;;;;;4989880;28;20219;-68
2022/11/19 08:57:39;;;;;;;18.70;16.80;;;;;;;;;;5026831;28;20195;-69
2022/11/19 09:00:07;;;;;;;18.47;15.70;;;;;;;;;;5023893;28;20333;-69
2022/11/19 09:02:35;;;;;;;18.57;16.63;;;;;;;;;;4980297;28;20266;-69
2022/11/19 09:05:02;;;;;;;18.03;16.00;;;;;;;;;;5028539;28;20348;-69
2022/11/19 09:07:29;;;;;;;19.87;16.67;;;;;;;;;;5037396;28;20223;-71
2022/11/19 09:09:57;;;;;;;17.77;15.90;;;;;;;;;;5004361;28;20393;-69
2022/11/19 09:12:29;;;;;;;20.57;18.37;;;;;;;;;;5030878;28;20223;-70
2022/11/19 09:14:56;;;;;;;17.87;15.97;;;;;;;;;;5028523;28;20215;-70
2022/11/19 09:17:23;;;;;;;21.97;16.07;;;;;;;;;;5030248;28;21096;-68
2022/11/19 09:19:51;;;;;;;20.20;17.47;;;;;;;;;;4964357;28;20481;-70
2022/11/19 09:22:18;;;;;;;19.47;17.50;;;;;;;;;;4935778;28;21267;-70
2022/11/19 09:24:46;;;;;;;22.13;16.73;;;;;;;;;;5027273;28;20212;-70
2022/11/19 09:27:13;;;;;;;24.60;21.13;;;;;;;;;;5002976;28;20671;-71
2022/11/19 09:29:42;;;;;;;20.43;18.17;;;;;;;;;;4999018;28;20670;-70
2022/11/19 09:32:09;;;;;;;21.23;18.67;;;;;;;;;;5000633;28;20227;-71
2022/11/19 09:34:39;;;;;;;20.60;18.40;;;;;;;;;;4999658;28;20255;-69
2022/11/19 09:37:07;;;;;;;20.77;17.00;;;;;;;;;;4979245;28;20865;-70
2022/11/19 09:39:34;;;;;;;20.63;17.00;;;;;;;;;;5012234;28;20473;-69
2022/11/19 09:42:08;;;;;;;19.20;17.17;;;;;;;;;;5024926;28;20823;-69
2022/11/19 09:44:41;;;;;;;22.43;17.43;;;;;;;;;;4995446;28;20403;-69
2022/11/19 09:47:18;;;;;;;20.43;17.63;;;;;;;;;;5020259;28;20206;-71
2022/11/19 09:49:48;;;;;;;21.23;17.90;;;;;;;;;;5006251;28;20374;-70
2022/11/19 09:52:18;;;;;;;18.67;16.67;;;;;;;;;;5006645;28;20219;-70
2022/11/19 09:54:48;;;;;;;20.27;17.30;;;;;;;;;;5002050;28;20445;-68
2022/11/19 09:57:18;;;;;;;19.10;17.10;;;;;;;;;;5020668;28;20235;-70
2022/11/19 09:59:46;;;;;;;19.33;17.17;;;;;;;;;;5005601;28;21258;-71
2022/11/19 10:02:17;;;;;;;18.43;16.53;;;;;;;;;;5022267;28;20223;-70
2022/11/19 10:04:45;;;;;;;19.10;15.93;;;;;;;;;;5005383;28;20419;-71
2022/11/19 10:07:17;;;;;;;27.20;17.13;;;;;;;;;;5028960;28;20754;-72
2022/11/19 10:09:50;;;;;;;17.93;15.77;;;;;;;;;;4982128;28;20472;-71
2022/11/19 10:12:24;;;;;;;19.70;17.53;;;;;;;;;;5024386;28;20238;-70
2022/11/19 10:15:00;;;;;;;23.57;18.27;;;;;;;;;;5011824;28;20454;-70
2022/11/19 10:17:34;;;;;;;19.00;16.43;;;;;;;;;;5026336;28;20249;-70
2022/11/19 10:20:17;;;;;;;22.10;18.57;;;;;;;;;;5029958;28;20694;-71
2022/11/19 10:22:50;;;;;;;70.10;53.60;;;;;;;;;;5022864;28;20340;-72
2022/11/19 10:25:26;;;;;;;22.73;19.37;;;;;;;;;;4982352;28;20211;-69
2022/11/19 10:27:54;;;;;;;19.53;17.53;;;;;;;;;;5028570;28;20703;-70
2022/11/19 10:30:23;;;;;;;20.50;17.70;;;;;;;;;;5023407;28;20209;-69
2022/11/19 10:32:55;;;;;;;24.00;19.83;;;;;;;;;;5024521;28;20223;-70
2022/11/19 10:35:25;;;;;;;21.77;19.10;;;;;;;;;;5030018;28;20202;-69
2022/11/19 10:37:55;;;;;;;19.73;16.47;;;;;;;;;;5010071;28;20997;-69
2022/11/19 10:40:23;;;;;;;21.77;18.37;;;;;;;;;;4982579;28;20489;-70
2022/11/19 10:42:53;;;;;;;18.50;15.90;;;;;;;;;;5029286;28;20235;-70
2022/11/19 10:45:22;;;;;;;21.20;16.33;;;;;;;;;;5033992;28;20272;-71
2022/11/19 10:47:55;;;;;;;18.43;16.43;;;;;;;;;;5012777;28;20754;-72
2022/11/19 10:50:25;;;;;;;18.50;16.43;;;;;;;;;;5036168;28;20448;-70
2022/11/19 10:52:54;;;;;;;20.10;17.40;;;;;;;;;;5018820;28;20992;-69
2022/11/19 10:55:27;;;;;;;19.30;16.17;;;;;;;;;;5004912;28;20231;-73
2022/11/19 10:58:05;;;;;;;20.27;18.17;;;;;;;;;;5022529;28;20228;-70
2022/11/19 11:00:33;;;;;;;23.63;19.47;;;;;;;;;;5029040;28;20445;-69
2022/11/19 11:03:01;;;;;;;19.30;16.33;;;;;;;;;;5013928;28;20255;-70
2022/11/19 11:05:31;;;;;;;20.23;16.87;;;;;;;;;;5028629;28;20203;-68
2022/11/19 11:07:59;;;;;;;22.13;19.23;;;;;;;;;;5016948;28;20211;-70
2022/11/19 11:10:29;;;;;;;22.23;17.87;;;;;;;;;;4989467;28;20211;-71
2022/11/19 11:15:46;;;;;;;22.70;17.73;;;;;;;;;;5035226;28;20396;-71
2022/11/19 11:18:15;;;;;;;21.10;16.87;;;;;;;;;;5019839;28;20227;-72
2022/11/19 11:20:47;;;;;;;20.97;17.73;;;;;;;;;;5034934;28;20621;-70
2022/11/19 11:23:17;;;;;;;22.57;18.63;;;;;;;;;;5016154;28;20444;-71
2022/11/19 11:25:51;;;;;;;27.70;22.03;;;;;;;;;;5032502;28;20428;-71
2022/11/19 11:28:19;;;;;;;22.50;19.93;;;;;;;;;;4936920;28;20257;-70
2022/11/19 11:30:51;;;;;;;23.80;21.20;;;;;;;;;;5007891;28;20219;-70
2022/11/19 11:33:25;;;;;;;22.30;19.90;;;;;;;;;;5032312;28;20230;-70
2022/11/19 11:35:55;;;;;;;18.83;16.83;;;;;;;;;;5013764;28;20457;-69
2022/11/19 11:38:25;;;;;;;17.73;15.70;;;;;;;;;;5033450;28;20226;-69
2022/11/19 11:40:56;;;;;;;19.63;17.60;;;;;;;;;;5029058;28;20321;-70
2022/11/19 11:44:00;;;;;;;20.43;16.77;;;;;;;;;;4985225;28;20791;-71
2022/11/19 11:46:33;;;;;;;18.93;16.87;;;;;;;;;;5031325;28;20219;-70
2022/11/19 11:49:01;;;;;;;19.37;16.97;;;;;;;;;;5034929;28;20328;-71
2022/11/19 11:51:39;;;;;;;17.67;15.80;;;;;;;;;;5013586;28;20218;-71
2022/11/19 11:54:15;;;;;;;16.67;14.37;;;;;;;;;;5043114;28;20336;-71
2022/11/19 11:56:45;;;;;;;19.23;16.27;;;;;;;;;;5031843;28;20252;-71
2022/11/19 11:59:21;;;;;;;23.40;18.17;;;;;;;;;;4985442;28;20222;-72
2022/11/19 12:01:53;;;;;;;18.00;15.73;;;;;;;;;;5026160;28;20249;-71
2022/11/19 12:04:20;;;;;;;16.87;14.27;;;;;;;;;;5030910;28;20212;-71
2022/11/19 12:06:54;;;;;;;18.17;15.40;;;;;;;;;;5008863;28;20528;-70
2022/11/19 12:09:26;;;;;;;17.87;15.07;;;;;;;;;;5033769;28;20740;-70
2022/11/19 12:11:57;;;;;;;15.27;13.70;;;;;;;;;;5030964;28;20215;-71
2022/11/19 12:14:27;;;;;;;15.07;13.57;;;;;;;;;;4986133;28;20215;-71
2022/11/19 12:17:24;;;;;;;16.17;14.50;;;;;;;;;;5027397;28;20524;-70
2022/11/19 12:19:58;;;;;;;16.47;13.67;;;;;;;;;;5001684;28;20207;-70
2022/11/19 12:22:33;;;;;;;16.00;13.50;;;;;;;;;;5012384;28;20238;-70
2022/11/19 12:25:11;;;;;;;16.90;14.93;;;;;;;;;;5031828;28;20622;-71
2022/11/19 12:27:41;;;;;;;15.47;13.87;;;;;;;;;;5028968;28;20200;-70
2022/11/19 12:30:11;;;;;;;16.77;14.83;;;;;;;;;;4986720;28;20211;-72
2022/11/19 12:32:52;;;;;;;15.63;14.03;;;;;;;;;;5028013;28;20227;-71
2022/11/19 12:35:27;;;;;;;15.90;14.13;;;;;;;;;;5036731;28;20360;-71
2022/11/19 12:38:10;;;;;;;15.33;13.90;;;;;;;;;;5013701;28;20234;-71
2022/11/19 12:40:43;;;;;;;18.40;16.37;;;;;;;;;;5026779;28;20617;-73
2022/11/19 12:43:18;;;;;;;14.47;12.97;;;;;;;;;;5040898;28;20223;-71
2022/11/19 12:45:50;;;;;;;17.97;15.20;;;;;;;;;;4984550;28;20300;-71
2022/11/19 12:48:35;;;;;;;16.80;15.10;;;;;;;;;;5028394;28;20206;-72
2022/11/19 12:51:06;;;;;;;15.17;13.63;;;;;;;;;;5030897;28;20424;-70
2022/11/19 12:53:42;;;;;;;17.87;15.97;;;;;;;;;;5011696;28;20231;-70
2022/11/19 12:56:17;;;;;;;15.67;13.97;;;;;;;;;;5032011;28;20523;-70
2022/11/19 12:58:49;;;;;;;15.27;13.77;;;;;;;;;;5026584;28;20437;-71
2022/11/19 13:01:19;;;;;;;16.60;14.90;;;;;;;;;;4982499;28;20212;-71
2022/11/19 13:03:50;;;;;;;17.27;15.67;;;;;;;;;;5025155;28;20782;-71
2022/11/19 13:06:20;;;;;;;24.53;20.30;;;;;;;;;;5031648;28;20237;-71
2022/11/19 13:08:49;;;;;;;23.03;18.87;;;;;;;;;;5008046;28;20208;-70
2022/11/19 13:11:21;;;;;;;17.33;14.77;;;;;;;;;;5030394;28;20845;-70
2022/11/19 13:13:51;;;;;;;15.47;13.47;;;;;;;;;;5027780;28;20697;-70
2022/11/19 13:16:19;;;;;;;16.23;13.67;;;;;;;;;;4985178;28;20211;-71
2022/11/19 13:18:49;;;;;;;16.03;14.33;;;;;;;;;;5024994;28;20223;-70
2022/11/19 13:21:30;;;;;;;14.33;12.87;;;;;;;;;;5032770;28;20203;-69
2022/11/19 13:24:03;;;;;;;15.23;13.73;;;;;;;;;;5009465;28;20544;-69
2022/11/19 13:26:32;;;;;;;16.87;13.83;;;;;;;;;;5034250;28;20210;-69
2022/11/19 13:29:04;;;;;;;16.33;14.70;;;;;;;;;;5026967;28;20341;-71
2022/11/19 13:31:33;;;;;;;16.13;14.63;;;;;;;;;;4983415;28;20229;-72
2022/11/19 13:34:03;;;;;;;15.77;13.33;;;;;;;;;;5029640;28;20424;-72
2022/11/19 13:36:33;;;;;;;14.53;13.03;;;;;;;;;;4959543;28;20219;-70
2022/11/19 13:39:02;;;;;;;16.37;14.77;;;;;;;;;;5024078;28;20230;-70
2022/11/19 13:41:33;;;;;;;14.50;13.10;;;;;;;;;;5036468;28;20559;-68
2022/11/19 13:46:47;;;;;;;14.10;12.70;;;;;;;;;;5030523;28;20697;-71
2022/11/19 13:49:18;;;;;;;15.77;13.93;;;;;;;;;;5010448;28;20773;-69
2022/11/19 13:51:47;;;;;;;15.00;13.53;;;;;;;;;;4986655;28;20219;-68
2022/11/19 13:54:21;;;;;;;15.17;13.53;;;;;;;;;;5006935;28;20212;-70
2022/11/19 13:56:51;;;;;;;14.50;12.80;;;;;;;;;;5031905;28;20705;-70
2022/11/19 13:59:28;;;;;;;13.77;12.27;;;;;;;;;;5013736;28;20497;-69
2022/11/19 14:02:09;;;;;;;13.77;12.37;;;;;;;;;;5028338;28;20214;-70
2022/11/19 14:04:43;;;;;;;13.70;12.30;;;;;;;;;;5031176;28;20399;-69
2022/11/19 14:07:20;;;;;;;14.90;13.30;;;;;;;;;;4983432;28;21157;-71
2022/11/19 14:09:55;;;;;;;15.40;13.90;;;;;;;;;;5029081;28;20694;-70
2022/11/19 14:12:39;;;;;;;16.03;14.37;;;;;;;;;;5021838;28;20250;-71
2022/11/19 14:27:17;;;;;;;13.47;12.17;;;;;;;;;;5009572;28;20424;-72
2022/11/19 14:29:54;;;;;;;16.53;13.60;;;;;;;;;;5018560;28;20399;-69
2022/11/19 14:32:29;;;;;;;14.07;12.67;;;;;;;;;;5030706;28;20434;-69
2022/11/19 14:35:23;;;;;;;16.20;12.93;;;;;;;;;;5033193;28;20419;-69
2022/11/19 14:37:52;;;;;;;15.70;14.10;;;;;;;;;;4970607;28;20220;-72
2022/11/19 14:40:22;;;;;;;14.80;13.40;;;;;;;;;;5036552;28;20210;-73
2022/11/19 14:46:19;;;;;;;14.77;13.17;;;;;;;;;;4998687;28;20203;-71
2022/11/19 14:48:49;;;;;;;14.17;12.67;;;;;;;;;;5038187;28;20210;-70
2022/11/19 14:51:18;;;;;;;14.17;12.73;;;;;;;;;;4993749;28;20897;-71
2022/11/19 14:53:48;;;;;;;14.57;13.17;;;;;;;;;;5030336;28;20673;-71
2022/11/19 14:56:16;;;;;;;15.57;14.07;;;;;;;;;;5032816;28;20488;-71
2022/11/19 14:58:50;;;;;;;16.77;15.10;;;;;;;;;;5016020;28;20228;-72
2022/11/19 15:01:18;;;;;;;16.47;14.87;;;;;;;;;;5010602;28;20340;-71
2022/11/19 15:03:51;;;;;;;15.93;14.33;;;;;;;;;;5034931;28;20333;-71
2022/11/19 15:06:18;;;;;;;15.63;14.13;;;;;;;;;;4988636;28;20761;-71
2022/11/19 15:08:47;;;;;;;15.67;14.10;;;;;;;;;;5025481;28;20656;-70
2022/11/19 15:11:14;;;;;;;14.93;12.83;;;;;;;;;;5031122;28;20207;-72
2022/11/19 15:13:42;;;;;;;13.53;12.13;;;;;;;;;;5013879;28;20267;-71
2022/11/19 15:16:11;;;;;;;16.90;15.23;;;;;;;;;;5016034;28;20200;-69
2022/11/19 15:18:59;;;;;;;18.67;16.13;;;;;;;;;;5035683;28;20230;-71
2022/11/19 15:21:45;;;;;;;18.23;16.33;;;;;;;;;;5030952;28;20717;-70
2022/11/19 15:24:20;;;;;;;16.50;14.40;;;;;;;;;;5021629;28;20199;-71
2022/11/19 15:26:53;;;;;;;15.70;13.87;;;;;;;;;;5024045;28;20203;-71
2022/11/19 15:29:22;;;;;;;15.40;13.30;;;;;;;;;;5000278;28;20210;-68
2022/11/19 15:32:02;;;;;;;14.87;13.33;;;;;;;;;;5017060;28;20458;-70
2022/11/19 15:34:48;;;;;;;16.93;13.53;;;;;;;;;;5034491;28;20207;-70
2022/11/19 15:37:47;;;;;;;15.23;13.60;;;;;;;;;;4959270;28;20248;-71
2022/11/19 15:40:18;;;;;;;24.73;18.83;;;;;;;;;;5027190;28;20227;-70
2022/11/19 15:42:49;;;;;;;15.63;13.97;;;;;;;;;;4983256;28;20242;-71